Time;durP1;ratioP1;P1;durP2;ratioP2;P2;SDS_P1;SDS_P2;PMS_P1;PMS_P2;Temp;Humidity;BMP_temperature;BMP_pressure;BME280_temperature;BME280_humidity;BME280_pressure;Samples;Min_cycle;Max_cycle;Signal;HPM_P1;HPM_P2
2020/12/29 00:01:50;;;;;;;32.75;21.08;;;;;;;2.30;100.00;97232.00;5242819;28;20062;-81
2020/12/29 00:04:25;;;;;;;37.17;21.67;;;;;;;2.29;100.00;97245.75;5241569;28;20027;-81
2020/12/29 00:06:56;;;;;;;34.97;21.70;;;;;;;2.34;100.00;97251.50;5241018;28;20024;-81
2020/12/29 00:09:27;;;;;;;34.17;21.85;;;;;;;2.38;100.00;97253.00;5237385;28;20025;-81
2020/12/29 00:11:57;;;;;;;33.70;21.48;;;;;;;2.37;100.00;97246.19;5244641;28;20027;-81
2020/12/29 00:14:28;;;;;;;32.47;21.10;;;;;;;2.42;100.00;97245.00;5244482;28;20063;-81
2020/12/29 00:16:58;;;;;;;34.80;21.35;;;;;;;2.44;100.00;97245.75;5242706;28;20360;-81
2020/12/29 00:19:29;;;;;;;31.52;20.20;;;;;;;2.42;100.00;97244.16;5241833;28;20021;-81
2020/12/29 00:21:59;;;;;;;32.60;20.20;;;;;;;2.33;100.00;97242.94;5245436;28;20029;-82
2020/12/29 00:24:29;;;;;;;32.47;20.50;;;;;;;2.24;100.00;97234.91;5245432;28;20020;-81
2020/12/29 00:27:01;;;;;;;33.33;20.65;;;;;;;2.21;100.00;97229.94;5246366;28;20019;-81
2020/12/29 00:29:32;;;;;;;32.33;20.30;;;;;;;2.31;100.00;97223.34;5246249;28;20036;-81
2020/12/29 00:32:03;;;;;;;31.67;20.02;;;;;;;2.34;100.00;97226.56;5246627;28;20029;-81
2020/12/29 00:34:33;;;;;;;33.63;21.00;;;;;;;2.28;100.00;97224.34;5245009;28;20054;-81
2020/12/29 00:37:04;;;;;;;32.13;21.38;;;;;;;2.18;100.00;97224.97;5251945;28;20100;-81
2020/12/29 00:39:34;;;;;;;32.92;20.35;;;;;;;2.35;100.00;97222.25;5239602;28;20029;-81
2020/12/29 00:42:04;;;;;;;29.83;19.67;;;;;;;2.34;100.00;97215.44;5245875;28;20024;-81
2020/12/29 00:44:35;;;;;;;29.70;19.35;;;;;;;2.21;100.00;97225.63;5246127;28;20115;-82
2020/12/29 00:47:05;;;;;;;30.27;18.88;;;;;;;2.17;100.00;97225.88;5245309;28;20025;-81
2020/12/29 00:49:37;;;;;;;33.53;20.40;;;;;;;2.19;100.00;97218.88;5245930;28;20013;-81
2020/12/29 00:52:07;;;;;;;31.17;19.60;;;;;;;2.18;100.00;97225.75;5225727;28;20037;-81
2020/12/29 00:54:38;;;;;;;30.40;19.60;;;;;;;2.16;100.00;97225.03;5229462;28;20601;-81
2020/12/29 00:57:08;;;;;;;32.30;19.98;;;;;;;2.09;100.00;97233.19;5251411;28;20028;-82
2020/12/29 00:59:38;;;;;;;28.15;19.38;;;;;;;1.94;100.00;97232.28;5245693;28;20024;-82
2020/12/29 01:02:08;;;;;;;27.33;17.95;;;;;;;1.97;100.00;97231.31;5245958;28;20107;-81
2020/12/29 01:04:39;;;;;;;25.38;17.13;;;;;;;2.16;100.00;97231.94;5244495;28;20028;-81
2020/12/29 01:07:09;;;;;;;26.83;17.02;;;;;;;2.14;100.00;97226.06;5244025;28;20066;-81
2020/12/29 01:09:39;;;;;;;27.75;17.48;;;;;;;2.15;100.00;97232.84;5238390;28;20451;-81
2020/12/29 01:12:09;;;;;;;26.38;16.75;;;;;;;2.20;100.00;97225.69;5246045;28;20012;-81
2020/12/29 01:14:40;;;;;;;25.23;17.23;;;;;;;2.14;100.00;97233.78;5245675;28;20027;-81
2020/12/29 01:17:13;;;;;;;26.42;16.83;;;;;;;2.01;100.00;97232.78;5246578;28;20032;-82
2020/12/29 01:19:43;;;;;;;27.55;18.33;;;;;;;2.06;100.00;97236.78;5245814;28;20121;-81
2020/12/29 01:22:14;;;;;;;26.77;17.35;;;;;;;2.17;100.00;97243.91;5245854;28;20056;-81
2020/12/29 01:24:45;;;;;;;25.75;16.52;;;;;;;2.10;100.00;97243.41;5245477;28;20030;-81
2020/12/29 01:27:15;;;;;;;25.70;16.80;;;;;;;2.13;100.00;97250.13;5244498;28;20028;-81
2020/12/29 01:29:46;;;;;;;27.10;16.85;;;;;;;2.04;100.00;97243.75;5244676;28;20512;-81
2020/12/29 01:32:16;;;;;;;26.45;16.70;;;;;;;1.83;100.00;97249.22;5244839;28;20028;-81
2020/12/29 01:34:46;;;;;;;24.70;16.45;;;;;;;1.89;100.00;97239.44;5240253;28;20024;-82
2020/12/29 01:37:16;;;;;;;26.00;17.48;;;;;;;1.81;100.00;97243.34;5231616;28;20028;-81
2020/12/29 01:39:47;;;;;;;25.02;16.45;;;;;;;1.69;100.00;97238.84;5244656;28;20013;-82
2020/12/29 01:42:17;;;;;;;27.33;17.92;;;;;;;1.69;100.00;97246.56;5245583;28;20099;-81
2020/12/29 01:44:47;;;;;;;26.83;17.67;;;;;;;1.77;100.00;97246.97;5243558;28;20024;-81
2020/12/29 01:47:18;;;;;;;27.30;17.58;;;;;;;1.81;100.00;97251.06;5245193;28;20024;-81
2020/12/29 01:49:48;;;;;;;24.85;16.50;;;;;;;1.79;100.00;97258.84;5243637;28;20117;-82
2020/12/29 01:52:19;;;;;;;27.63;17.90;;;;;;;1.69;100.00;97256.88;5244516;28;20075;-81
2020/12/29 01:54:50;;;;;;;27.67;17.40;;;;;;;1.58;100.00;97261.72;5245102;28;20035;-81
2020/12/29 01:57:20;;;;;;;28.50;17.52;;;;;;;1.50;100.00;97256.19;5243930;28;20021;-81
2020/12/29 01:59:51;;;;;;;28.25;17.05;;;;;;;1.63;100.00;97257.19;5242536;28;20035;-82
2020/12/29 02:02:21;;;;;;;26.23;16.45;;;;;;;1.80;100.00;97251.97;5243305;28;20044;-81
2020/12/29 02:04:52;;;;;;;24.02;15.50;;;;;;;1.83;100.00;97255.19;5244357;28;20066;-81
2020/12/29 02:07:23;;;;;;;23.05;15.15;;;;;;;1.81;100.00;97262.16;5243908;28;20034;-81
2020/12/29 02:09:54;;;;;;;26.38;16.27;;;;;;;1.84;100.00;97256.03;5237475;28;20032;-81
2020/12/29 02:12:30;;;;;;;22.60;14.98;;;;;;;1.70;100.00;97257.66;5244753;28;20025;-81
2020/12/29 02:15:02;;;;;;;24.13;15.68;;;;;;;1.75;100.00;97259.09;5244339;28;20119;-81
2020/12/29 02:17:33;;;;;;;24.27;15.40;;;;;;;1.64;100.00;97256.28;5243982;28;20615;-81
2020/12/29 02:20:05;;;;;;;24.30;15.15;;;;;;;1.53;100.00;97261.16;5244377;28;20111;-81
2020/12/29 02:22:36;;;;;;;23.67;14.85;;;;;;;1.39;100.00;97257.66;5242417;28;20086;-82
2020/12/29 02:25:07;;;;;;;26.10;16.35;;;;;;;1.19;100.00;97271.53;5243807;28;20443;-81
2020/12/29 02:27:49;;;;;;;26.05;16.67;;;;;;;1.14;100.00;97270.94;5244549;28;20070;-82
2020/12/29 02:30:20;;;;;;;25.95;17.17;;;;;;;1.19;100.00;97279.25;5243015;28;20138;-81
2020/12/29 02:32:51;;;;;;;26.13;16.80;;;;;;;1.10;100.00;97269.41;5243700;28;20039;-82
2020/12/29 02:35:21;;;;;;;28.10;17.45;;;;;;;1.08;100.00;97275.56;5247207;28;20107;-82
2020/12/29 02:37:51;;;;;;;26.33;17.27;;;;;;;1.25;100.00;97289.22;5244665;28;20024;-82
2020/12/29 02:40:21;;;;;;;28.08;16.73;;;;;;;1.36;100.00;97289.50;5237496;28;20616;-82
2020/12/29 02:42:52;;;;;;;24.65;16.45;;;;;;;1.30;100.00;97292.41;5243260;28;20039;-82
2020/12/29 02:45:22;;;;;;;25.17;16.45;;;;;;;1.44;100.00;97297.63;5243341;28;20074;-82
2020/12/29 02:47:52;;;;;;;24.92;16.35;;;;;;;1.38;100.00;97297.97;5242194;28;20386;-82
2020/12/29 02:50:23;;;;;;;25.30;16.88;;;;;;;1.33;100.00;97306.81;5243002;28;20414;-82
2020/12/29 02:52:53;;;;;;;29.45;17.90;;;;;;;1.30;100.00;97310.41;5243558;28;20020;-82
2020/12/29 02:55:23;;;;;;;29.00;18.00;;;;;;;1.14;100.00;97309.50;5243260;28;20086;-82
2020/12/29 02:57:54;;;;;;;27.67;17.88;;;;;;;1.21;100.00;97305.72;5243575;28;20024;-82
2020/12/29 03:00:24;;;;;;;28.10;17.17;;;;;;;1.33;100.00;97310.22;5241386;28;20032;-82
2020/12/29 03:02:54;;;;;;;27.13;17.35;;;;;;;1.45;100.00;97308.78;5241929;28;20054;-82
2020/12/29 03:05:25;;;;;;;26.98;16.60;;;;;;;1.04;100.00;97328.03;5243276;28;20032;-82
2020/12/29 03:07:55;;;;;;;27.92;17.70;;;;;;;0.91;100.00;97325.22;5243401;28;20036;-81
2020/12/29 03:10:25;;;;;;;28.27;18.73;;;;;;;0.87;100.00;97331.44;5236555;28;20016;-82
2020/12/29 03:12:55;;;;;;;30.00;18.33;;;;;;;0.79;100.00;97343.84;5242382;28;20059;-82
2020/12/29 03:15:26;;;;;;;34.25;19.98;;;;;;;0.83;100.00;97345.34;5243046;28;20082;-82
2020/12/29 03:17:56;;;;;;;29.25;18.70;;;;;;;0.81;100.00;97348.88;5243212;28;20110;-82
2020/12/29 03:20:26;;;;;;;32.70;19.38;;;;;;;0.78;100.00;97352.44;5241676;28;20062;-81
2020/12/29 03:22:57;;;;;;;30.85;19.88;;;;;;;0.79;100.00;97359.25;5242222;28;20044;-81
2020/12/29 03:25:27;;;;;;;31.80;20.05;;;;;;;0.69;100.00;97363.16;5237544;28;20020;-81
2020/12/29 03:27:57;;;;;;;32.47;21.05;;;;;;;0.82;100.00;97369.38;5242290;28;20029;-81
2020/12/29 03:30:27;;;;;;;34.22;21.27;;;;;;;0.74;100.00;97356.06;5243266;28;20020;-81
2020/12/29 03:32:58;;;;;;;32.28;19.70;;;;;;;0.79;100.00;97358.41;5241199;28;20028;-82
2020/12/29 03:35:28;;;;;;;30.27;19.63;;;;;;;0.80;100.00;97350.63;5232353;28;20040;-81
2020/12/29 03:37:58;;;;;;;33.33;20.17;;;;;;;0.81;100.00;97357.44;5235295;28;20024;-81
2020/12/29 03:40:28;;;;;;;31.75;19.70;;;;;;;0.78;100.00;97361.88;5233235;28;20016;-82
2020/12/29 03:42:59;;;;;;;31.45;20.20;;;;;;;0.75;100.00;97355.16;5236605;28;20035;-82
2020/12/29 03:45:29;;;;;;;32.58;20.25;;;;;;;0.74;100.00;97356.06;5242372;28;20063;-81
2020/12/29 03:47:59;;;;;;;33.35;20.77;;;;;;;0.79;100.00;97359.25;5241591;28;20027;-81
2020/12/29 03:50:29;;;;;;;31.75;19.77;;;;;;;0.76;100.00;97361.94;5241713;28;20012;-81
2020/12/29 03:53:00;;;;;;;30.92;19.30;;;;;;;0.77;100.00;97366.22;5241099;28;20112;-81
2020/12/29 03:55:31;;;;;;;30.70;19.63;;;;;;;0.72;100.00;97360.44;5229416;28;20024;-82
2020/12/29 03:58:02;;;;;;;30.75;20.08;;;;;;;0.70;100.00;97364.81;5231963;28;20036;-81
2020/12/29 04:00:34;;;;;;;29.88;19.67;;;;;;;0.66;100.00;97362.47;5222545;28;20025;-81
2020/12/29 04:03:05;;;;;;;32.80;20.13;;;;;;;0.66;100.00;97362.47;5234531;28;20044;-81
2020/12/29 04:05:35;;;;;;;29.90;18.63;;;;;;;0.70;100.00;97357.13;5231990;28;20038;-81
2020/12/29 04:08:05;;;;;;;29.27;18.67;;;;;;;0.74;100.00;97360.38;5234947;28;20051;-81
2020/12/29 04:10:36;;;;;;;30.70;19.25;;;;;;;0.70;100.00;97364.81;5232094;28;20032;-81
2020/12/29 04:13:06;;;;;;;30.23;18.92;;;;;;;0.67;100.00;97364.97;5240743;28;20025;-81
2020/12/29 04:15:36;;;;;;;28.98;18.20;;;;;;;0.59;100.00;97367.06;5241580;28;20017;-81
2020/12/29 04:18:06;;;;;;;32.75;20.70;;;;;;;0.63;100.00;97371.16;5242526;28;20032;-81
2020/12/29 04:20:37;;;;;;;33.22;20.63;;;;;;;0.68;100.00;97366.63;5242147;28;20082;-81
2020/12/29 04:23:08;;;;;;;32.67;21.25;;;;;;;0.76;100.00;97358.56;5242332;28;20086;-81
2020/12/29 04:25:38;;;;;;;34.78;20.77;;;;;;;0.79;100.00;97364.38;5242456;28;20160;-80
2020/12/29 04:28:08;;;;;;;31.20;19.88;;;;;;;0.88;100.00;97370.81;5241644;28;20029;-81
2020/12/29 04:30:38;;;;;;;30.25;18.50;;;;;;;0.60;100.00;97362.75;5241273;28;20107;-81
2020/12/29 04:33:09;;;;;;;29.70;19.00;;;;;;;0.59;100.00;97371.38;5241713;28;20029;-81
2020/12/29 04:35:39;;;;;;;30.58;18.80;;;;;;;0.52;100.00;97375.16;5242621;28;20084;-80
2020/12/29 04:38:09;;;;;;;28.77;18.42;;;;;;;0.53;100.00;97372.50;5236391;28;20059;-81
2020/12/29 04:40:40;;;;;;;29.85;19.08;;;;;;;0.54;100.00;97374.16;5234125;28;20021;-81
2020/12/29 04:43:10;;;;;;;27.75;18.33;;;;;;;0.62;100.00;97366.94;5233372;28;20037;-81
2020/12/29 04:45:41;;;;;;;28.27;18.60;;;;;;;0.70;100.00;97372.53;5230897;28;20076;-81
2020/12/29 04:48:11;;;;;;;27.83;16.88;;;;;;;0.96;100.00;97376.41;5234754;28;20035;-81
2020/12/29 04:50:43;;;;;;;25.40;16.60;;;;;;;1.01;100.00;97379.56;5232965;28;20057;-81
2020/12/29 04:53:15;;;;;;;23.92;16.13;;;;;;;0.75;100.00;97368.00;5230336;28;20442;-81
2020/12/29 04:55:51;;;;;;;23.17;15.43;;;;;;;1.03;100.00;97372.66;5230369;28;20029;-81
2020/12/29 04:58:23;;;;;;;23.65;15.73;;;;;;;0.89;100.00;97370.72;5233773;28;20082;-82
2020/12/29 05:00:54;;;;;;;23.98;15.45;;;;;;;0.81;100.00;97372.00;5231910;28;20092;-82
2020/12/29 05:03:27;;;;;;;22.55;14.93;;;;;;;0.76;100.00;97366.25;5233846;28;20039;-80
2020/12/29 05:05:57;;;;;;;23.63;16.10;;;;;;;0.57;100.00;97375.75;5236371;28;20020;-82
2020/12/29 05:08:27;;;;;;;26.48;16.77;;;;;;;0.51;100.00;97378.59;5237807;28;20025;-82
2020/12/29 05:10:58;;;;;;;24.50;16.45;;;;;;;0.48;100.00;97382.16;5239036;28;20024;-82
2020/12/29 05:13:28;;;;;;;25.08;15.93;;;;;;;0.42;100.00;97381.59;5237506;28;20024;-82
2020/12/29 05:15:58;;;;;;;23.75;15.07;;;;;;;0.36;100.00;97376.78;5238878;28;20583;-82
2020/12/29 05:18:29;;;;;;;23.17;14.63;;;;;;;0.50;100.00;97382.91;5234590;28;20028;-82
2020/12/29 05:20:59;;;;;;;22.10;14.43;;;;;;;0.45;100.00;97391.72;5235073;28;20099;-82
2020/12/29 05:23:30;;;;;;;20.98;14.18;;;;;;;0.38;100.00;97388.63;5235094;28;20025;-82
2020/12/29 05:26:00;;;;;;;19.23;13.10;;;;;;;0.28;100.00;97391.69;5233630;28;20024;-81
2020/12/29 05:28:31;;;;;;;20.38;13.75;;;;;;;0.22;100.00;97387.66;5233698;28;20020;-81
2020/12/29 05:31:04;;;;;;;20.98;13.40;;;;;;;0.27;100.00;97385.72;5233670;28;20033;-81
2020/12/29 05:33:35;;;;;;;21.17;13.60;;;;;;;0.20;100.00;97376.63;5236754;28;20053;-82
2020/12/29 05:36:05;;;;;;;23.30;14.20;;;;;;;0.22;100.00;97377.38;5234583;28;20049;-82
2020/12/29 05:38:41;;;;;;;21.88;13.70;;;;;;;0.26;100.00;97384.06;5236519;28;20479;-82
2020/12/29 05:41:22;;;;;;;20.90;14.13;;;;;;;0.19;100.00;97387.78;5235693;28;20029;-82
2020/12/29 05:44:03;;;;;;;22.13;14.32;;;;;;;0.29;100.00;97403.59;5237571;28;20029;-82
2020/12/29 05:46:34;;;;;;;21.70;14.27;;;;;;;0.20;100.00;97394.59;5234763;28;20078;-83
2020/12/29 05:49:05;;;;;;;22.00;13.90;;;;;;;0.19;100.00;97408.34;5238801;28;20027;-82
2020/12/29 05:51:37;;;;;;;21.92;13.73;;;;;;;0.23;100.00;97409.03;5237836;28;20017;-84
2020/12/29 05:54:09;;;;;;;22.05;13.23;;;;;;;0.19;100.00;97403.19;5237669;28;20896;-83
2020/12/29 05:56:40;;;;;;;23.95;14.40;;;;;;;0.21;100.00;97406.53;5237593;28;20036;-83
2020/12/29 05:59:12;;;;;;;21.95;13.55;;;;;;;0.27;100.00;97405.41;5238316;28;20025;-82
2020/12/29 06:01:47;;;;;;;22.27;13.45;;;;;;;0.36;100.00;97405.81;5236940;28;20119;-80
2020/12/29 06:04:19;;;;;;;21.40;13.27;;;;;;;0.38;100.00;97411.72;5236456;28;20069;-84
2020/12/29 06:06:50;;;;;;;21.08;12.98;;;;;;;0.40;100.00;97417.63;5236379;28;20120;-83
2020/12/29 06:09:20;;;;;;;21.13;13.15;;;;;;;0.42;100.00;97418.38;5238675;28;20096;-83
2020/12/29 06:11:51;;;;;;;18.35;12.13;;;;;;;0.36;100.00;97421.22;5239532;28;20028;-82
2020/12/29 06:14:26;;;;;;;18.57;12.10;;;;;;;0.33;100.00;97423.94;5235011;28;20428;-80
2020/12/29 06:16:56;;;;;;;13.38;8.52;;;;;;;0.37;100.00;97422.91;5236490;28;20318;-78
2020/12/29 06:19:28;;;;;;;18.65;11.90;;;;;;;0.44;100.00;97434.56;5235758;28;20048;-81
2020/12/29 06:22:12;;;;;;;15.43;10.32;;;;;;;0.54;100.00;97440.94;5239234;28;20061;-80
2020/12/29 06:24:45;;;;;;;16.50;10.43;;;;;;;0.62;100.00;97451.69;5237911;28;20025;-81
2020/12/29 06:27:15;;;;;;;15.15;9.23;;;;;;;0.88;100.00;97450.47;5235258;28;20024;-80
2020/12/29 06:29:45;;;;;;;13.63;8.43;;;;;;;0.99;100.00;97453.34;5239289;28;20050;-79
2020/12/29 06:32:19;;;;;;;12.52;7.97;;;;;;;1.02;100.00;97448.91;5242791;28;20028;-80
2020/12/29 06:34:49;;;;;;;11.68;7.63;;;;;;;1.20;100.00;97453.16;5242966;28;20085;-80
2020/12/29 06:37:24;;;;;;;14.40;7.50;;;;;;;1.28;100.00;97451.06;5240596;28;20020;-79
2020/12/29 06:40:02;;;;;;;10.23;6.78;;;;;;;1.24;100.00;97459.00;5238541;28;20403;-81
2020/12/29 06:42:37;;;;;;;12.65;7.95;;;;;;;1.12;100.00;97463.00;5243775;28;20032;-80
2020/12/29 06:45:12;;;;;;;15.20;8.40;;;;;;;1.17;100.00;97458.47;5243686;28;20067;-81
2020/12/29 06:47:46;;;;;;;14.35;8.95;;;;;;;0.94;100.00;97466.44;5241748;28;20047;-81
2020/12/29 06:50:28;;;;;;;14.55;8.93;;;;;;;0.88;100.00;97477.00;5243108;28;20016;-80
2020/12/29 06:53:03;;;;;;;14.88;9.20;;;;;;;0.89;100.00;97467.56;5243464;28;20078;-79
2020/12/29 06:55:46;;;;;;;15.25;9.45;;;;;;;0.88;100.00;97471.03;5244192;28;20032;-80
2020/12/29 06:58:30;;;;;;;13.68;9.13;;;;;;;0.83;100.00;97478.97;5243232;28;20034;-80
2020/12/29 07:01:20;;;;;;;15.57;9.30;;;;;;;0.80;100.00;97484.25;5244049;28;20540;-81
2020/12/29 07:04:07;;;;;;;14.18;8.80;;;;;;;0.87;100.00;97485.59;5243023;28;20390;-80
2020/12/29 07:06:37;;;;;;;13.88;8.68;;;;;;;0.81;100.00;97501.31;5249973;28;20767;-81
2020/12/29 07:09:07;;;;;;;13.07;8.27;;;;;;;0.76;100.00;97507.56;5236020;28;20040;-78
2020/12/29 07:11:38;;;;;;;13.60;7.73;;;;;;;0.75;100.00;97506.72;5243997;28;20028;-81
2020/12/29 07:14:08;;;;;;;11.85;8.00;;;;;;;0.80;100.00;97509.94;5243232;28;20262;-81
2020/12/29 07:16:38;;;;;;;13.48;8.43;;;;;;;0.81;100.00;97509.03;5243408;28;20596;-81
2020/12/29 07:19:10;;;;;;;11.13;7.75;;;;;;;0.89;100.00;97522.34;5243241;28;20500;-81
2020/12/29 07:21:48;;;;;;;11.13;7.30;;;;;;;0.77;100.00;97515.22;5243911;28;20047;-81
2020/12/29 07:24:18;;;;;;;13.05;7.97;;;;;;;0.86;100.00;97522.50;5242806;28;20028;-81
2020/12/29 07:26:56;;;;;;;11.23;7.38;;;;;;;0.92;100.00;97527.34;5243226;28;20591;-81
2020/12/29 07:29:26;;;;;;;11.02;7.88;;;;;;;0.99;100.00;97536.44;5234165;28;20464;-82
2020/12/29 07:31:59;;;;;;;11.07;7.38;;;;;;;1.08;100.00;97538.56;5229570;28;20098;-82
2020/12/29 07:34:33;;;;;;;12.70;7.88;;;;;;;1.15;100.00;97546.84;5243242;28;20073;-83
2020/12/29 07:37:04;;;;;;;12.38;7.60;;;;;;;1.11;100.00;97541.03;5243942;28;20025;-80
2020/12/29 07:39:34;;;;;;;10.57;7.38;;;;;;;1.15;100.00;97547.69;5243810;28;20378;-83
2020/12/29 07:42:05;;;;;;;12.10;7.43;;;;;;;1.21;100.00;97544.81;5243995;28;20024;-80
2020/12/29 07:44:35;;;;;;;12.30;7.50;;;;;;;1.24;100.00;97554.94;5244219;28;20106;-80
2020/12/29 07:47:06;;;;;;;11.20;6.93;;;;;;;1.37;100.00;97558.63;5243376;28;20422;-79
2020/12/29 07:49:37;;;;;;;11.27;8.00;;;;;;;1.33;100.00;97562.25;5243532;28;20062;-84
2020/12/29 07:52:07;;;;;;;13.82;7.95;;;;;;;1.27;100.00;97567.66;5243971;28;20016;-81
2020/12/29 07:54:37;;;;;;;13.32;7.22;;;;;;;1.32;100.00;97570.88;5243979;28;20033;-82
2020/12/29 07:57:08;;;;;;;11.55;7.53;;;;;;;1.43;100.00;97568.59;5244463;28;20033;-82
2020/12/29 07:59:38;;;;;;;10.32;7.40;;;;;;;1.42;100.00;97581.56;5242311;28;20032;-81
2020/12/29 08:02:09;;;;;;;11.40;7.63;;;;;;;1.30;100.00;97588.13;5241806;28;20107;-81
2020/12/29 08:04:39;;;;;;;15.32;8.07;;;;;;;1.38;100.00;97587.75;5243602;28;20021;-83
2020/12/29 08:07:09;;;;;;;11.75;7.43;;;;;;;1.48;100.00;97586.41;5244224;28;20036;-82
2020/12/29 08:09:46;;;;;;;11.10;7.25;;;;;;;1.45;100.00;97600.25;5248899;28;20593;-81
2020/12/29 08:12:17;;;;;;;10.48;7.53;;;;;;;1.38;100.00;97600.63;5244223;28;20499;-83
2020/12/29 08:14:47;;;;;;;12.27;7.18;;;;;;;1.53;100.00;97599.88;5245405;28;20038;-83
2020/12/29 08:17:18;;;;;;;12.00;7.05;;;;;;;1.62;100.00;97604.59;5244502;28;20652;-83
2020/12/29 08:20:00;;;;;;;11.32;7.25;;;;;;;2.13;100.00;97606.28;5242914;28;20096;-83
2020/12/29 08:22:30;;;;;;;10.75;6.68;;;;;;;2.04;100.00;97603.34;5241585;28;20020;-83
2020/12/29 08:25:01;;;;;;;11.50;6.53;;;;;;;2.27;100.00;97611.59;5240788;28;20024;-84
2020/12/29 08:27:32;;;;;;;10.63;6.20;;;;;;;2.02;100.00;97624.00;5243576;28;20452;-83
2020/12/29 08:30:03;;;;;;;9.05;6.10;;;;;;;1.89;100.00;97622.13;5235430;28;20024;-83
2020/12/29 08:32:34;;;;;;;9.60;6.13;;;;;;;1.87;100.00;97617.06;5243340;28;20035;-81
2020/12/29 08:35:05;;;;;;;9.02;5.97;;;;;;;1.92;100.00;97629.69;5242811;28;20033;-84
2020/12/29 08:37:51;;;;;;;10.45;6.63;;;;;;;1.80;100.00;97630.28;5242862;28;20075;-80
2020/12/29 08:40:24;;;;;;;9.82;6.25;;;;;;;1.79;100.00;97634.59;5232187;28;20054;-81
2020/12/29 08:42:59;;;;;;;11.75;6.18;;;;;;;1.92;100.00;97632.25;5244367;28;20044;-80
2020/12/29 08:45:30;;;;;;;10.50;6.72;;;;;;;1.83;100.00;97641.25;5246717;28;20024;-80
2020/12/29 08:48:00;;;;;;;12.05;5.93;;;;;;;1.78;100.00;97632.94;5245704;28;20017;-81
2020/12/29 08:50:31;;;;;;;8.75;5.90;;;;;;;2.03;100.00;97638.53;5246601;28;20081;-80
2020/12/29 08:53:05;;;;;;;9.85;5.47;;;;;;;1.97;100.00;97646.56;5246286;28;20036;-81
2020/12/29 08:55:36;;;;;;;8.20;5.80;;;;;;;1.79;100.00;97655.19;5245426;28;20103;-80
2020/12/29 08:58:07;;;;;;;9.45;6.18;;;;;;;1.81;100.00;97657.69;5245932;28;20028;-81
2020/12/29 09:00:43;;;;;;;9.65;5.95;;;;;;;1.92;100.00;97660.56;5245378;28;20025;-81
2020/12/29 09:03:21;;;;;;;9.65;5.95;;;;;;;2.17;100.00;97663.66;5245262;28;20497;-80
2020/12/29 09:05:55;;;;;;;8.73;5.75;;;;;;;1.98;100.00;97668.03;5245389;28;20655;-81
2020/12/29 09:08:29;;;;;;;8.85;5.78;;;;;;;1.86;100.00;97681.47;5245922;28;20210;-80
2020/12/29 09:11:10;;;;;;;8.68;5.60;;;;;;;1.93;100.00;97669.97;5237321;28;20047;-80
2020/12/29 09:14:05;;;;;;;10.75;6.18;;;;;;;2.04;100.00;97680.59;5245505;28;20024;-82
2020/12/29 09:16:35;;;;;;;8.20;5.75;;;;;;;2.14;100.00;97681.81;5246849;28;20095;-80
2020/12/29 09:19:13;;;;;;;10.82;6.40;;;;;;;2.29;100.00;97687.06;5246134;28;20115;-81
2020/12/29 09:21:43;;;;;;;9.48;6.05;;;;;;;2.32;100.00;97686.09;5245385;28;20048;-81
2020/12/29 09:24:19;;;;;;;10.80;6.32;;;;;;;2.50;100.00;97683.41;5245194;28;20032;-82
2020/12/29 09:26:49;;;;;;;12.25;6.00;;;;;;;2.46;100.00;97681.91;5246036;28;20028;-82
2020/12/29 09:29:20;;;;;;;12.27;7.15;;;;;;;2.29;100.00;97684.47;5246610;28;20016;-82
2020/12/29 09:31:55;;;;;;;10.43;6.32;;;;;;;2.40;100.00;97686.53;5246652;28;20039;-81
2020/12/29 09:34:25;;;;;;;10.98;6.90;;;;;;;2.56;100.00;97697.72;5247590;28;20065;-83
2020/12/29 09:37:07;;;;;;;10.05;6.13;;;;;;;2.62;100.00;97700.84;5244942;28;20032;-83
2020/12/29 09:39:38;;;;;;;8.82;6.25;;;;;;;2.56;100.00;97706.31;5240060;28;20032;-83
2020/12/29 09:42:08;;;;;;;9.32;6.15;;;;;;;2.54;100.00;97708.09;5245452;28;20028;-80
2020/12/29 09:44:39;;;;;;;10.38;6.20;;;;;;;2.59;100.00;97715.63;5245948;28;20024;-82
2020/12/29 09:47:09;;;;;;;12.13;6.80;;;;;;;2.63;100.00;97712.81;5241060;28;20028;-81
2020/12/29 09:49:40;;;;;;;9.20;6.10;;;;;;;2.60;100.00;97722.44;5243954;28;20024;-82
2020/12/29 09:52:10;;;;;;;9.07;6.07;;;;;;;2.68;100.00;97720.34;5256878;28;20031;-82
2020/12/29 09:54:40;;;;;;;10.82;6.63;;;;;;;2.76;100.00;97729.34;5242009;28;20038;-82
2020/12/29 09:57:10;;;;;;;10.52;6.63;;;;;;;2.80;100.00;97730.00;5243719;28;20024;-79
2020/12/29 09:59:41;;;;;;;10.48;6.80;;;;;;;2.93;100.00;97736.22;5241384;28;20043;-81
2020/12/29 10:02:11;;;;;;;8.00;5.82;;;;;;;2.92;100.00;97729.41;5236968;28;20074;-81
2020/12/29 10:04:41;;;;;;;9.60;6.43;;;;;;;2.88;100.00;97728.72;5244297;28;20220;-82
2020/12/29 10:07:12;;;;;;;9.13;6.35;;;;;;;2.88;100.00;97728.72;5242835;28;20082;-80
2020/12/29 10:09:42;;;;;;;12.95;6.60;;;;;;;2.88;100.00;97730.47;5244535;28;20116;-82
2020/12/29 10:12:12;;;;;;;9.65;5.93;;;;;;;2.93;100.00;97737.06;5244435;28;20609;-82
2020/12/29 10:14:43;;;;;;;10.82;6.40;;;;;;;2.99;100.00;97746.25;5238974;28;20020;-82
2020/12/29 10:17:13;;;;;;;9.65;5.95;;;;;;;3.14;100.00;97751.44;5242972;28;20078;-82
2020/12/29 10:19:44;;;;;;;9.05;6.43;;;;;;;3.17;100.00;97755.63;5244704;28;20024;-79
2020/12/29 10:22:14;;;;;;;8.98;6.07;;;;;;;2.99;100.00;97751.41;5245063;28;20036;-82
2020/12/29 10:24:45;;;;;;;10.98;6.90;;;;;;;2.86;100.00;97764.06;5242673;28;20036;-82
2020/12/29 10:27:16;;;;;;;10.57;6.43;;;;;;;2.85;100.00;97764.16;5243674;28;20024;-80
2020/12/29 10:29:46;;;;;;;11.20;6.65;;;;;;;2.77;100.00;97772.25;5242625;28;20013;-80
2020/12/29 10:32:21;;;;;;;10.05;6.63;;;;;;;2.84;100.00;97775.38;5243827;28;20108;-82
2020/12/29 10:34:51;;;;;;;10.07;6.90;;;;;;;2.73;100.00;97773.34;5241795;28;20170;-82
2020/12/29 10:37:22;;;;;;;12.85;7.05;;;;;;;2.77;100.00;97782.56;5243589;28;20097;-82
2020/12/29 10:39:52;;;;;;;10.85;7.07;;;;;;;2.64;100.00;97780.66;5236717;28;20067;-82
2020/12/29 10:42:23;;;;;;;9.90;7.10;;;;;;;2.60;100.00;97784.28;5243574;28;20479;-82
2020/12/29 10:44:53;;;;;;;10.88;7.22;;;;;;;2.68;100.00;97782.19;5243416;28;20398;-81
2020/12/29 10:47:23;;;;;;;11.65;7.47;;;;;;;2.69;100.00;97786.44;5242854;28;20036;-80
2020/12/29 10:49:54;;;;;;;11.90;6.85;;;;;;;2.76;100.00;97787.78;5243657;28;20048;-82
2020/12/29 10:52:24;;;;;;;10.55;7.35;;;;;;;2.60;100.00;97800.59;5243679;28;20028;-82
2020/12/29 10:54:54;;;;;;;10.02;7.38;;;;;;;2.68;100.00;97797.66;5241554;28;20091;-82
2020/12/29 10:57:24;;;;;;;14.35;7.30;;;;;;;3.01;100.00;97803.72;5243307;28;20728;-82
2020/12/29 10:59:55;;;;;;;14.57;6.88;;;;;;;3.14;100.00;97805.63;5243313;28;20129;-81
2020/12/29 11:02:25;;;;;;;13.15;7.00;;;;;;;3.34;100.00;97804.63;5243818;28;20029;-82
2020/12/29 11:04:55;;;;;;;13.27;6.85;;;;;;;3.42;100.00;97805.88;5241020;28;20046;-78
2020/12/29 11:07:25;;;;;;;9.25;6.72;;;;;;;3.40;100.00;97812.03;5241958;28;20624;-79
2020/12/29 11:09:56;;;;;;;11.02;6.72;;;;;;;3.54;100.00;97807.81;5237520;28;20091;-80
2020/12/29 11:12:26;;;;;;;10.68;7.03;;;;;;;3.31;100.00;97812.47;5245716;28;20025;-83
2020/12/29 11:14:56;;;;;;;10.55;6.78;;;;;;;3.24;100.00;97811.16;5245492;28;20082;-80
2020/12/29 11:17:26;;;;;;;13.63;7.80;;;;;;;3.41;100.00;97813.69;5244669;28;20024;-80
2020/12/29 11:19:57;;;;;;;12.60;8.63;;;;;;;3.54;100.00;97814.75;5249763;28;20024;-80
2020/12/29 11:22:27;;;;;;;12.55;8.73;;;;;;;3.62;100.00;97813.44;5244950;28;20047;-85
2020/12/29 11:24:57;;;;;;;11.45;8.63;;;;;;;3.71;100.00;97821.53;5245990;28;20047;-79
2020/12/29 11:27:27;;;;;;;13.55;8.13;;;;;;;3.76;100.00;97819.53;5249388;28;20023;-79
2020/12/29 11:29:58;;;;;;;12.00;8.43;;;;;;;3.86;100.00;97820.72;5243654;28;20023;-82
2020/12/29 11:32:28;;;;;;;10.85;8.07;;;;;;;4.03;100.00;97822.41;5243092;28;20024;-81
2020/12/29 11:34:58;;;;;;;12.68;8.30;;;;;;;4.07;100.00;97827.31;5241390;28;20107;-81
2020/12/29 11:37:28;;;;;;;13.68;8.60;;;;;;;4.13;100.00;97824.41;5239413;28;20119;-81
2020/12/29 11:39:59;;;;;;;13.85;8.88;;;;;;;4.25;100.00;97826.34;5243256;28;20028;-83
2020/12/29 11:42:29;;;;;;;11.85;8.68;;;;;;;4.38;100.00;97832.50;5243218;28;20082;-81